Time;durP1;ratioP1;P1;durP2;ratioP2;P2;SDS_P1;SDS_P2;PMS_P1;PMS_P2;Temp;Humidity;BMP_temperature;BMP_pressure;BME280_temperature;BME280_humidity;BME280_pressure;Samples;Min_cycle;Max_cycle;Signal;HPM_P1;HPM_P2
2022/04/01 00:00:42;;;;;;;17.10;10.90;;;6.50;99.90;;;6.69;nan;98849.66;4974364;28;20211;-68
2022/04/01 00:03:10;;;;;;;18.45;12.32;;;6.60;99.90;;;6.78;nan;98854.06;4967333;28;20219;-68
2022/04/01 00:05:40;;;;;;;17.38;9.15;;;6.70;99.90;;;6.69;nan;98848.81;4976187;28;20783;-69
2022/04/01 00:08:08;;;;;;;17.50;12.52;;;6.60;99.90;;;6.68;nan;98854.97;4993483;28;24424;-66
2022/04/01 00:10:36;;;;;;;18.40;12.43;;;6.50;99.90;;;6.63;nan;98850.16;5011537;28;24420;-68
2022/04/01 00:13:03;;;;;;;17.80;12.00;;;6.50;99.90;;;6.53;nan;98848.47;4993685;28;24934;-70
2022/04/01 00:15:31;;;;;;;17.90;12.40;;;6.40;99.90;;;6.64;nan;98856.19;4974489;28;24415;-68
2022/04/01 00:18:00;;;;;;;16.70;12.50;;;6.50;99.90;;;6.74;nan;98857.88;4957318;28;24456;-68
2022/04/01 00:20:27;;;;;;;16.35;12.00;;;6.60;99.90;;;6.59;nan;98853.97;4974716;28;24424;-68
2022/04/01 00:22:55;;;;;;;17.85;12.30;;;6.50;99.90;;;6.64;nan;98854.41;4970492;28;24456;-68
2022/04/01 00:25:23;;;;;;;17.83;13.05;;;6.50;99.90;;;6.70;nan;98853.06;4989289;28;24461;-68
2022/04/01 00:27:50;;;;;;;17.58;13.00;;;6.60;99.90;;;6.68;nan;98854.97;4966555;28;20776;-68
2022/04/01 00:30:18;;;;;;;17.67;12.90;;;6.50;99.90;;;6.57;nan;98852.44;4973583;28;24425;-69
2022/04/01 00:32:45;;;;;;;16.23;12.85;;;6.50;99.90;;;6.68;nan;98852.38;4970038;28;20785;-68
2022/04/01 00:35:12;;;;;;;17.70;13.95;;;6.60;99.90;;;6.61;nan;98848.66;4953889;28;24448;-68
2022/04/01 00:37:40;;;;;;;19.23;13.40;;;6.50;99.90;;;6.73;nan;98855.41;4989628;28;24805;-71
2022/04/01 00:40:10;;;;;;;18.08;13.63;;;6.60;99.90;;;6.85;nan;98855.19;4971294;28;24515;-70
2022/04/01 00:42:37;;;;;;;18.40;14.20;;;6.70;99.90;;;6.77;nan;98849.03;4958700;28;20790;-68
2022/04/01 00:45:05;;;;;;;19.48;12.73;;;6.70;99.90;;;6.76;nan;98853.38;4953402;28;20762;-69
2022/04/01 00:47:32;;;;;;;17.97;12.40;;;6.60;99.90;;;6.69;nan;98843.63;4982455;28;24543;-68
2022/04/01 00:49:59;;;;;;;18.17;11.80;;;6.60;99.90;;;6.71;nan;98849.50;4988778;28;25047;-68
2022/04/01 00:52:26;;;;;;;17.17;13.80;;;6.60;99.90;;;6.79;nan;98853.09;4972614;28;20764;-70
2022/04/01 00:54:53;;;;;;;19.38;13.52;;;6.60;99.90;;;6.52;nan;98849.41;4983157;28;24856;-68
2022/04/01 00:57:21;;;;;;;18.80;12.98;;;6.50;99.90;;;6.64;nan;98856.19;4989982;28;25011;-68
2022/04/01 00:59:50;;;;;;;17.73;12.80;;;6.50;99.90;;;6.59;nan;98853.13;4972685;28;25003;-68
2022/04/01 01:02:17;;;;;;;17.67;13.15;;;6.50;99.90;;;6.55;nan;98850.00;4972807;28;20792;-70
2022/04/01 01:04:45;;;;;;;18.38;12.70;;;6.40;99.90;;;6.61;nan;98841.69;4965498;28;20859;-68
2022/04/01 01:07:14;;;;;;;17.53;12.70;;;6.50;99.90;;;6.58;nan;98846.34;4988169;28;20824;-69
2022/04/01 01:09:43;;;;;;;18.48;13.50;;;6.50;99.90;;;6.66;nan;98843.91;4977142;28;24423;-68
2022/04/01 01:12:11;;;;;;;18.08;13.90;;;6.50;99.90;;;6.67;nan;98840.34;4986181;28;20782;-68
2022/04/01 01:14:40;;;;;;;18.67;13.63;;;6.50;99.90;;;6.67;nan;98845.53;4987963;28;24826;-69
2022/04/01 01:17:11;;;;;;;19.73;15.50;;;6.50;99.90;;;6.46;nan;98836.97;4970688;28;20792;-65
2022/04/01 01:19:40;;;;;;;18.30;13.20;;;6.40;99.90;;;6.53;nan;98843.28;4970709;28;20799;-71
2022/04/01 01:22:08;;;;;;;18.53;13.20;;;6.40;99.90;;;6.56;nan;98845.63;4989228;28;24490;-68
2022/04/01 01:24:38;;;;;;;18.98;13.43;;;6.40;99.90;;;6.56;nan;98843.06;4951043;28;20802;-68
2022/04/01 01:27:07;;;;;;;19.02;14.95;;;6.50;99.90;;;6.69;nan;98847.06;4937176;28;20798;-68
2022/04/01 01:29:37;;;;;;;18.30;13.60;;;6.50;99.90;;;6.61;nan;98841.69;4957657;28;20776;-68
2022/04/01 01:32:09;;;;;;;18.10;13.07;;;6.50;99.90;;;6.52;nan;98839.88;4960766;28;20832;-68
2022/04/01 01:34:39;;;;;;;18.40;13.35;;;6.40;99.90;;;6.52;nan;98828.69;4972196;28;20795;-68
2022/04/01 01:37:10;;;;;;;18.35;15.10;;;6.40;99.90;;;6.43;nan;98829.47;4986433;28;20804;-68
2022/04/01 01:39:38;;;;;;;18.75;13.20;;;6.40;99.90;;;6.45;nan;98841.34;4993227;28;20799;-68
2022/04/01 01:42:07;;;;;;;18.75;12.80;;;6.40;99.90;;;6.46;nan;98837.81;4957502;28;24504;-71
2022/04/01 01:44:35;;;;;;;18.70;14.70;;;6.30;99.90;;;6.47;nan;98839.47;4972565;28;21343;-69
2022/04/01 01:47:02;;;;;;;18.60;14.50;;;6.40;99.90;;;6.25;nan;98834.41;4975023;28;21141;-69
2022/04/01 01:49:29;;;;;;;18.00;14.48;;;6.20;99.90;;;6.31;nan;98840.81;4979428;28;25024;-72
2022/04/01 01:54:43;;;;;;;18.55;14.80;;;6.10;99.90;;;6.31;nan;98826.13;4968854;28;21402;-68
2022/04/01 01:57:14;;;;;;;18.40;14.00;;;6.10;99.90;;;6.24;nan;98832.75;4972535;28;24806;-69
2022/04/01 01:59:43;;;;;;;17.43;14.17;;;6.10;99.90;;;6.37;nan;98832.56;4956122;28;20812;-71
2022/04/01 02:02:11;;;;;;;17.40;12.80;;;6.20;99.90;;;6.32;nan;98826.94;4970991;28;24973;-70
2022/04/01 02:04:40;;;;;;;18.63;14.83;;;6.20;99.90;;;6.40;nan;98825.38;4971399;28;20772;-70
2022/04/01 02:07:09;;;;;;;17.95;13.80;;;6.30;99.90;;;6.43;nan;98830.28;4956516;28;21197;-66
2022/04/01 02:09:38;;;;;;;17.92;13.15;;;6.30;99.90;;;6.44;nan;98828.50;4977079;28;20777;-69
2022/04/01 02:12:06;;;;;;;18.10;12.38;;;6.30;99.90;;;6.31;nan;98826.13;4960132;28;24437;-69
2022/04/01 02:14:34;;;;;;;17.27;13.32;;;6.20;99.90;;;6.31;nan;98825.28;4975434;28;20795;-69
2022/04/01 02:17:01;;;;;;;18.02;13.70;;;6.20;99.90;;;6.24;nan;98818.03;4974412;28;20793;-69
2022/04/01 02:19:30;;;;;;;18.10;14.10;;;6.20;99.90;;;6.16;nan;98823.03;4995895;28;24440;-71
2022/04/01 02:21:58;;;;;;;17.93;12.90;;;6.10;99.90;;;6.15;nan;98828.34;4974771;28;21333;-69
2022/04/01 02:24:26;;;;;;;17.02;13.32;;;6.10;99.90;;;6.17;nan;98836.81;4976436;28;24436;-68
2022/04/01 02:26:53;;;;;;;17.75;13.65;;;6.10;99.90;;;6.17;nan;98840.22;4974167;28;24467;-69
2022/04/01 02:29:23;;;;;;;18.52;11.82;;;6.00;99.90;;;6.13;nan;98840.59;4948439;28;24464;-71
2022/04/01 02:31:51;;;;;;;18.50;14.00;;;6.00;99.90;;;6.08;nan;98840.13;4982182;28;20821;-68
2022/04/01 02:34:21;;;;;;;19.27;13.18;;;6.00;99.90;;;6.05;nan;98848.13;4982091;28;24453;-73
2022/04/01 02:36:48;;;;;;;17.20;11.70;;;5.90;99.90;;;6.11;nan;98843.28;4967563;28;20811;-72
2022/04/01 02:39:15;;;;;;;15.20;11.50;;;6.00;99.90;;;6.04;nan;98842.16;4992683;28;20760;-69
2022/04/01 02:41:42;;;;;;;17.13;11.80;;;5.90;99.90;;;6.14;nan;98848.22;4992566;28;25051;-68
2022/04/01 02:44:09;;;;;;;15.35;13.73;;;6.00;99.90;;;6.18;nan;98839.25;4993452;28;24444;-68
2022/04/01 02:46:45;;;;;;;15.93;11.50;;;6.10;99.90;;;6.10;nan;98846.84;4987754;28;24457;-69
2022/04/01 02:49:16;;;;;;;14.75;11.80;;;6.00;99.90;;;6.13;nan;98845.78;4994100;28;20809;-68
2022/04/01 02:51:46;;;;;;;16.88;12.60;;;6.00;99.90;;;6.18;nan;98848.78;4994345;28;24445;-71
2022/04/01 02:54:14;;;;;;;16.42;12.20;;;6.00;99.90;;;6.19;nan;98845.25;4939413;28;24850;-70
2022/04/01 02:56:43;;;;;;;16.93;11.77;;;6.10;99.90;;;6.21;nan;98846.78;4970128;28;24477;-69
2022/04/01 02:59:11;;;;;;;16.25;12.18;;;6.10;99.90;;;6.18;nan;98843.59;4975182;28;20764;-68
2022/04/01 03:01:42;;;;;;;16.90;12.10;;;6.10;99.90;;;6.18;nan;98852.19;4973786;28;20794;-68
2022/04/01 03:04:11;;;;;;;16.83;12.00;;;6.10;99.90;;;6.14;nan;98852.56;4974389;28;20788;-71
2022/04/01 03:06:40;;;;;;;16.02;11.40;;;6.10;99.90;;;6.26;nan;98851.59;4973704;28;20790;-69
2022/04/01 03:09:07;;;;;;;14.63;10.35;;;6.10;99.90;;;6.21;nan;98859.72;4992372;28;24441;-72
2022/04/01 03:11:36;;;;;;;16.48;11.95;;;6.10;99.90;;;6.22;nan;98857.94;4958788;28;24445;-70
2022/04/01 03:14:09;;;;;;;16.50;12.20;;;6.10;99.90;;;6.26;nan;98854.19;4975937;28;24517;-67
2022/04/01 03:16:37;;;;;;;15.60;12.00;;;6.10;99.90;;;6.35;nan;98855.16;4987784;28;24475;-70
2022/04/01 03:19:08;;;;;;;15.80;12.07;;;6.20;99.90;;;6.34;nan;98856.13;4972045;28;21329;-70
2022/04/01 03:21:39;;;;;;;17.13;12.40;;;6.20;99.90;;;6.39;nan;98851.41;4974421;28;20821;-70
2022/04/01 03:24:11;;;;;;;15.27;12.30;;;6.30;99.90;;;6.37;nan;98856.69;4973345;28;24441;-69
2022/04/01 03:26:40;;;;;;;16.73;11.88;;;6.30;99.90;;;6.28;nan;98856.63;4956216;28;20853;-69
2022/04/01 03:29:07;;;;;;;17.48;13.05;;;6.20;99.90;;;6.23;nan;98860.44;4959873;28;24450;-69
2022/04/01 03:31:35;;;;;;;17.23;12.70;;;6.20;99.90;;;6.22;nan;98856.19;4981854;28;24448;-69
2022/04/01 03:34:06;;;;;;;17.38;13.50;;;6.10;99.90;;;6.28;nan;98852.28;4991360;28;20776;-67
2022/04/01 03:36:34;;;;;;;15.93;13.75;;;6.20;99.90;;;6.24;nan;98838.75;4990847;28;24977;-70
2022/04/01 03:39:03;;;;;;;16.58;14.02;;;6.10;99.90;;;6.13;nan;98849.16;4959471;28;24989;-69
2022/04/01 03:41:30;;;;;;;16.80;13.98;;;6.10;99.90;;;6.07;nan;98835.91;4991558;28;24472;-69
2022/04/01 03:44:00;;;;;;;14.90;11.93;;;6.00;99.90;;;6.14;nan;98848.22;4975212;28;24445;-69
2022/04/01 03:46:59;;;;;;;16.83;13.70;;;6.00;99.90;;;6.13;nan;98845.78;4995776;28;20779;-72
2022/04/01 03:49:31;;;;;;;14.80;12.20;;;6.10;99.90;;;6.12;nan;98847.53;4979487;28;20782;-71
2022/04/01 03:51:59;;;;;;;16.02;11.80;;;6.10;99.90;;;6.10;nan;98846.84;4951974;28;20781;-72
2022/04/01 03:54:28;;;;;;;15.43;12.20;;;6.10;99.90;;;6.02;nan;98844.06;4972868;28;20870;-71
2022/04/01 03:57:01;;;;;;;15.63;12.48;;;5.90;99.90;;;6.16;nan;98850.69;4973265;28;20767;-70
2022/04/01 03:59:40;;;;;;;14.50;12.23;;;6.00;99.90;;;6.13;nan;98849.16;4953330;28;20789;-73
2022/04/01 04:02:13;;;;;;;16.40;11.10;;;6.10;99.90;;;6.16;nan;98859.28;4960091;28;20795;-71
2022/04/01 04:04:40;;;;;;;14.82;12.20;;;6.00;99.90;;;6.13;nan;98856.94;4987735;28;21176;-69
2022/04/01 04:07:09;;;;;;;13.88;10.80;;;6.00;99.90;;;6.10;nan;98857.19;4954539;28;20793;-66
2022/04/01 04:09:39;;;;;;;14.50;11.27;;;6.00;99.90;;;6.13;nan;98856.94;4974483;28;24437;-69
2022/04/01 04:12:12;;;;;;;15.20;11.80;;;6.00;99.90;;;6.08;nan;98863.44;4974532;28;20871;-69
2022/04/01 04:14:41;;;;;;;15.50;11.83;;;6.00;99.90;;;6.05;nan;98871.44;4958873;28;20893;-71
2022/04/01 04:17:14;;;;;;;15.07;11.85;;;6.00;99.90;;;6.07;nan;98872.13;4958274;28;20762;-67
2022/04/01 04:20:32;;;;;;;14.45;11.85;;;5.90;99.90;;;6.16;nan;98887.75;4957121;28;24483;-70
2022/04/01 04:23:28;;;;;;;16.10;12.20;;;6.00;99.90;;;6.04;nan;98872.41;4990450;28;20814;-71
2022/04/01 04:26:11;;;;;;;16.45;11.90;;;6.00;99.90;;;6.14;nan;98879.31;4962144;28;24902;-72
2022/04/01 04:28:43;;;;;;;14.82;12.60;;;6.00;99.90;;;6.07;nan;98883.31;4952757;28;20834;-69
2022/04/01 04:31:13;;;;;;;14.98;11.82;;;6.00;99.90;;;6.05;nan;98885.22;4952133;28;20820;-69
2022/04/01 04:33:47;;;;;;;16.70;11.98;;;6.00;99.90;;;6.08;nan;98879.81;4990527;28;24532;-71
2022/04/01 04:36:51;;;;;;;15.45;12.73;;;6.00;99.90;;;5.94;nan;98893.00;4998864;28;24460;-70
2022/04/01 04:39:33;;;;;;;15.30;11.87;;;5.90;99.90;;;6.05;nan;98895.56;4957479;28;20870;-70
2022/04/01 04:42:03;;;;;;;15.63;11.40;;;5.90;99.90;;;6.02;nan;98901.00;4972661;28;20780;-68
2022/04/01 04:44:30;;;;;;;15.30;11.15;;;5.90;99.90;;;6.07;nan;98898.03;4973340;28;20791;-70
2022/04/01 04:47:00;;;;;;;18.20;13.05;;;5.90;99.90;;;6.00;nan;98902.06;4988208;28;24461;-69
2022/04/01 04:49:29;;;;;;;15.73;12.10;;;5.90;99.90;;;5.90;nan;98898.59;4940099;28;21178;-69
2022/04/01 04:51:58;;;;;;;16.35;12.30;;;5.80;99.90;;;5.83;nan;98908.56;4982893;28;21189;-69
2022/04/01 04:54:26;;;;;;;16.40;12.80;;;5.70;99.90;;;5.89;nan;98910.69;4941487;28;20790;-68
2022/04/01 04:56:53;;;;;;;14.73;11.18;;;5.80;99.90;;;5.89;nan;98909.88;4981535;28;20638;-69
2022/04/01 04:59:22;;;;;;;15.90;13.27;;;5.80;99.90;;;5.84;nan;98917.16;4972844;28;24433;-68
2022/04/01 05:02:05;;;;;;;16.30;12.07;;;5.80;99.90;;;5.94;nan;98915.50;4975672;28;24448;-70
2022/04/01 05:04:56;;;;;;;17.23;13.68;;;5.80;99.90;;;5.76;nan;98922.94;4973485;28;20772;-69
2022/04/01 05:07:44;;;;;;;16.17;12.05;;;5.70;99.90;;;5.83;nan;98921.50;4988591;28;20823;-69
2022/04/01 05:10:18;;;;;;;16.50;12.53;;;5.80;99.90;;;5.77;nan;98932.31;4989189;28;24507;-71
2022/04/01 05:13:11;;;;;;;17.13;13.43;;;5.70;99.90;;;5.72;nan;98931.88;4989365;28;24452;-70
2022/04/01 05:15:41;;;;;;;16.63;13.20;;;5.70;99.90;;;5.80;nan;98939.03;4988555;23;21377;-72
2022/04/01 05:18:16;;;;;;;18.00;13.18;;;5.70;99.90;;;5.89;nan;98952.13;4971598;28;24456;-72
2022/04/01 05:20:56;;;;;;;18.20;12.77;;;5.80;99.90;;;5.79;nan;98951.13;4988297;28;24444;-72
2022/04/01 05:23:40;;;;;;;17.65;12.50;;;5.70;99.90;;;5.81;nan;98948.44;4957268;28;24996;-73
2022/04/01 05:26:12;;;;;;;15.45;11.50;;;5.70;99.90;;;5.83;nan;98952.56;4937415;28;25089;-73
2022/04/01 05:28:51;;;;;;;17.40;12.57;;;5.70;99.90;;;5.84;nan;98949.06;4971442;28;24548;-72
2022/04/01 05:31:44;;;;;;;15.27;13.50;;;5.70;99.90;;;5.62;nan;98954.25;4945006;29;24458;-72
2022/04/01 05:34:39;;;;;;;15.38;12.52;;;5.60;99.90;;;5.69;nan;98960.56;4953447;28;24465;-73
2022/04/01 05:37:08;;;;;;;14.30;11.10;;;5.60;99.90;;;5.72;nan;98957.75;4944177;29;24457;-73
2022/04/01 05:39:37;;;;;;;15.55;11.73;;;5.60;99.90;;;5.81;nan;98962.22;4923076;28;25032;-73
2022/04/01 05:42:09;;;;;;;14.77;11.30;;;5.70;99.90;;;5.80;nan;98963.16;4955195;28;24453;-74
2022/04/01 05:44:37;;;;;;;15.90;11.43;;;5.70;99.90;;;5.81;nan;98959.63;4956398;28;24476;-72
2022/04/01 05:47:06;;;;;;;14.65;11.05;;;5.70;99.90;;;5.84;nan;98964.59;4956973;28;20848;-73
2022/04/01 05:49:40;;;;;;;13.45;11.18;;;5.80;99.90;;;5.94;nan;98965.50;4940078;28;24448;-72
2022/04/01 05:52:09;;;;;;;13.75;11.70;;;5.80;99.90;;;5.87;nan;98969.53;4973626;28;24448;-73
2022/04/01 05:54:39;;;;;;;13.82;10.98;;;5.80;99.90;;;5.83;nan;98973.28;4941009;28;24437;-73
2022/04/01 05:57:11;;;;;;;17.52;11.20;;;5.80;99.90;;;5.80;nan;98980.44;4954493;29;24449;-72
2022/04/01 05:59:38;;;;;;;14.65;10.95;;;5.70;99.90;;;5.84;nan;98979.28;4952011;28;25039;-73
2022/04/01 06:02:58;;;;;;;12.83;10.70;;;5.80;99.90;;;5.77;nan;98978.09;4940873;28;25238;-73
2022/04/01 06:05:49;;;;;;;13.13;10.90;;;5.70;99.90;;;5.70;nan;98974.34;4967807;28;24829;-72
2022/04/01 06:08:48;;;;;;;13.02;10.40;;;5.70;99.90;;;5.68;nan;98986.56;4938690;28;24465;-72
2022/04/01 06:11:26;;;;;;;12.40;10.65;;;5.70;99.90;;;5.69;nan;98990.78;4956730;28;24990;-72
2022/04/01 06:14:43;;;;;;;12.85;10.95;;;5.60;99.90;;;5.50;nan;98984.47;4973383;28;24437;-72
2022/04/01 06:17:37;;;;;;;10.43;9.00;;;5.50;99.90;;;5.30;nan;98994.72;4968620;28;24469;-72
2022/04/01 06:20:07;;;;;;;12.25;10.38;;;5.40;99.90;;;5.32;nan;98998.78;4959277;28;24453;-72
2022/04/01 06:22:58;;;;;;;11.85;9.52;;;5.30;99.90;;;5.31;nan;98996.34;4971697;28;24436;-72
2022/04/01 06:25:32;;;;;;;12.23;9.10;;;5.40;99.90;;;5.34;nan;99003.88;4973559;28;24426;-72
2022/04/01 06:28:24;;;;;;;12.35;8.68;;;5.40;99.90;;;5.54;nan;99002.34;4956856;28;24476;-72
2022/04/01 06:31:05;;;;;;;13.30;11.00;;;5.50;99.90;;;5.38;nan;99007.88;4956880;28;24440;-70
2022/04/01 06:34:23;;;;;;;11.30;9.45;;;5.40;99.90;;;5.37;nan;99011.38;4965107;28;24450;-72
2022/04/01 06:37:02;;;;;;;11.20;9.30;;;5.40;99.90;;;5.39;nan;99009.50;4960142;28;25073;-72
2022/04/01 06:40:03;;;;;;;11.48;10.20;;;5.40;99.90;;;5.48;nan;99016.56;4938131;28;24866;-72
2022/04/01 06:42:33;;;;;;;11.70;9.85;;;5.50;99.90;;;5.57;nan;99018.47;4954399;28;24985;-71
2022/04/01 06:45:00;;;;;;;11.20;9.45;;;5.60;99.90;;;5.48;nan;99019.16;4959339;28;25016;-72
2022/04/01 06:47:28;;;;;;;11.00;9.90;;;5.50;99.90;;;5.41;nan;99015.38;4938266;28;25069;-72
2022/04/01 06:49:56;;;;;;;11.77;10.00;;;5.40;99.90;;;5.45;nan;99027.97;4952571;28;24442;-71
2022/04/01 06:52:26;;;;;;;12.77;11.15;;;5.50;99.90;;;5.35;nan;99031.38;4956495;28;24445;-72
2022/04/01 06:54:54;;;;;;;13.43;10.60;;;5.30;99.90;;;5.41;nan;99033.47;4940734;28;24468;-72
2022/04/01 06:57:21;;;;;;;13.27;10.40;;;5.40;99.90;;;5.50;nan;99027.63;4960718;28;25631;-72
2022/04/01 06:59:49;;;;;;;11.90;10.00;;;5.40;99.90;;;5.54;nan;99031.59;4947275;28;24452;-70
2022/04/01 07:02:16;;;;;;;13.00;9.88;;;5.50;99.90;;;5.49;nan;99029.38;4971855;28;24428;-69
2022/04/01 07:04:43;;;;;;;13.00;9.80;;;5.50;99.90;;;5.58;nan;99035.59;4971460;28;20794;-72
2022/04/01 07:07:10;;;;;;;13.10;11.10;;;5.60;99.90;;;5.59;nan;99032.09;4964431;28;21342;-72
2022/04/01 07:09:37;;;;;;;13.97;11.50;;;5.50;99.90;;;5.49;nan;99033.75;4971727;28;24449;-72
2022/04/01 07:12:05;;;;;;;12.90;11.45;;;5.50;99.90;;;5.60;nan;99038.91;4971032;28;24444;-72
2022/04/01 07:14:32;;;;;;;13.75;10.82;;;5.60;99.90;;;5.51;nan;99049.97;4938305;28;24444;-72
2022/04/01 07:16:59;;;;;;;14.57;10.50;;;5.50;99.90;;;5.54;nan;99035.97;4955953;28;24442;-72
2022/04/01 07:19:27;;;;;;;14.32;10.32;;;5.60;99.90;;;5.59;nan;99045.03;4954870;28;24584;-72
2022/04/01 07:21:54;;;;;;;11.73;10.40;;;5.60;99.90;;;5.51;nan;99053.34;4970241;28;24445;-70
2022/04/01 07:24:21;;;;;;;10.98;7.88;;;5.60;99.90;;;5.56;nan;99041.88;4968787;28;24906;-72
2022/04/01 07:26:49;;;;;;;11.63;10.52;;;5.60;99.90;;;5.30;nan;99044.63;4972104;28;24446;-72
2022/04/01 07:29:16;;;;;;;11.88;10.18;;;5.30;99.90;;;5.24;nan;99041.69;4971363;28;24456;-74
2022/04/01 07:34:40;;;;;;;12.23;11.02;;;5.20;99.90;;;4.96;nan;99055.03;4971024;28;24446;-72
2022/04/01 07:37:09;;;;;;;10.93;9.82;;;5.10;99.90;;;5.09;nan;99058.38;4955279;28;24437;-73
2022/04/01 07:39:36;;;;;;;10.23;9.23;;;5.10;99.90;;;5.17;nan;99067.19;4940211;28;24441;-72
2022/04/01 07:42:05;;;;;;;10.95;8.32;;;5.20;99.90;;;5.16;nan;99075.06;4955090;28;20230;-72
2022/04/01 07:44:32;;;;;;;11.07;7.28;;;5.20;99.90;;;5.15;nan;99068.25;4955926;28;20228;-73
2022/04/01 07:47:00;;;;;;;12.63;8.75;;;5.20;99.90;;;5.32;nan;99076.38;4971578;28;20210;-73
2022/04/01 07:49:28;;;;;;;11.05;8.75;;;5.30;99.90;;;5.50;nan;99069.00;4955342;28;20232;-75
2022/04/01 07:52:16;;;;;;;10.60;9.63;;;5.50;99.90;;;5.35;nan;99047.72;4972275;28;20204;-74
2022/04/01 07:54:47;;;;;;;;;;;5.40;99.90;;;5.20;nan;99077.31;4972800;28;20050;-73
2022/04/01 07:57:15;;;;;;;12.80;9.80;;;5.30;99.90;;;4.98;nan;99071.25;4943226;29;20821;-74
2022/04/01 07:59:42;;;;;;;11.75;8.55;;;5.10;99.90;;;5.12;nan;99083.97;4961031;28;20643;-73
2022/04/01 08:02:10;;;;;;;12.55;9.23;;;5.20;99.90;;;5.12;nan;99073.63;4973447;28;20212;-74
2022/04/01 08:04:37;;;;;;;12.20;11.02;;;5.10;99.90;;;4.90;nan;99068.41;4969442;28;20238;-72
2022/04/01 08:07:07;;;;;;;10.40;9.30;;;5.10;99.90;;;5.01;nan;99082.19;4971000;28;24584;-74
2022/04/01 08:09:35;;;;;;;11.55;10.35;;;5.00;99.90;;;5.04;nan;99087.13;4968609;28;24464;-73
2022/04/01 08:12:03;;;;;;;11.68;10.48;;;5.00;99.90;;;5.06;nan;99072.34;4937619;28;24448;-73
2022/04/01 08:14:31;;;;;;;11.97;10.30;;;5.10;99.90;;;5.08;nan;99092.91;4954238;28;24818;-74
2022/04/01 08:16:58;;;;;;;11.88;10.38;;;5.10;99.90;;;4.99;nan;99088.41;4953395;28;24442;-73
2022/04/01 08:19:25;;;;;;;12.52;10.60;;;5.00;99.90;;;5.11;nan;99106.41;4970663;28;20792;-74
2022/04/01 08:21:52;;;;;;;11.07;9.70;;;5.10;99.90;;;5.14;nan;99101.03;4954298;28;24448;-71
2022/04/01 08:24:20;;;;;;;11.40;9.73;;;5.20;99.90;;;5.19;nan;99100.69;4971486;28;24540;-74
2022/04/01 08:26:48;;;;;;;11.60;8.73;;;5.20;99.90;;;5.22;nan;99101.28;4956532;28;24453;-73
2022/04/01 08:29:15;;;;;;;11.95;9.98;;;5.20;99.90;;;5.16;nan;99112.06;4970249;28;24452;-74
2022/04/01 08:31:42;;;;;;;10.48;8.73;;;5.20;99.90;;;5.25;nan;99114.00;4970574;28;24504;-73
2022/04/01 08:34:10;;;;;;;10.65;9.15;;;5.30;99.90;;;5.29;nan;99120.59;4952750;28;24644;-74
2022/04/01 08:36:37;;;;;;;11.88;10.05;;;5.30;99.90;;;5.47;nan;99120.97;4962552;28;24472;-74
2022/04/01 08:39:04;;;;;;;11.20;10.10;;;5.40;99.90;;;5.36;nan;99128.72;4953868;28;24441;-73
2022/04/01 08:41:31;;;;;;;10.20;9.20;;;5.40;99.90;;;5.36;nan;99128.72;4953899;28;24441;-73
2022/04/01 08:43:58;;;;;;;11.00;9.80;;;5.40;99.90;;;5.23;nan;99133.13;4954487;28;24429;-73
2022/04/01 08:46:25;;;;;;;9.32;8.45;;;5.30;99.90;;;4.99;nan;99124.59;4936880;28;24461;-74
2022/04/01 08:48:53;;;;;;;11.23;10.23;;;5.10;99.90;;;5.11;nan;99132.25;4950466;28;24472;-73
2022/04/01 08:51:20;;;;;;;10.73;9.73;;;5.20;99.90;;;5.07;nan;99132.63;4937987;28;24442;-74
2022/04/01 08:53:47;;;;;;;11.07;9.70;;;5.10;99.90;;;5.07;nan;99132.63;4960382;28;24449;-73
2022/04/01 08:56:19;;;;;;;10.70;9.60;;;5.10;99.90;;;5.19;nan;99148.06;4938988;28;24446;-73
2022/04/01 08:58:46;;;;;;;11.05;10.05;;;5.30;99.90;;;5.16;nan;99142.28;4954774;28;24472;-72
2022/04/01 09:01:14;;;;;;;11.48;9.57;;;5.30;99.90;;;5.09;nan;99148.84;4971496;28;24500;-74
2022/04/01 09:03:43;;;;;;;11.75;10.15;;;5.20;99.90;;;5.00;nan;99144.34;4970305;28;24421;-73
2022/04/01 09:06:11;;;;;;;12.85;9.80;;;5.20;99.90;;;5.19;nan;99149.81;4953810;28;24496;-74
2022/04/01 09:08:41;;;;;;;12.38;8.80;;;5.20;99.90;;;5.29;nan;99145.59;4970320;28;25002;-73
2022/04/01 09:11:20;;;;;;;10.43;7.70;;;5.30;99.90;;;5.16;nan;99152.63;4937951;28;24961;-73
2022/04/01 09:13:51;;;;;;;10.20;9.10;;;5.30;99.90;;;5.20;nan;99167.78;4937120;28;24494;-74
2022/04/01 09:16:28;;;;;;;10.02;8.85;;;5.30;99.90;;;5.09;nan;99131.56;4951279;28;20786;-74
2022/04/01 09:19:02;;;;;;;9.55;8.35;;;5.10;99.90;;;4.97;nan;99163.47;4967819;28;25032;-73
2022/04/01 09:21:36;;;;;;;9.65;8.65;;;5.10;99.90;;;5.03;nan;99169.94;4969251;28;24445;-74
2022/04/01 09:24:04;;;;;;;9.23;8.32;;;5.10;99.90;;;5.12;nan;99166.69;4951889;28;24465;-73
2022/04/01 09:26:35;;;;;;;9.63;8.63;;;5.10;99.90;;;4.84;nan;99174.78;4952572;28;24585;-73
2022/04/01 09:29:04;;;;;;;8.85;7.95;;;5.10;99.90;;;4.94;nan;99180.97;4969468;28;24449;-73
2022/04/01 09:31:35;;;;;;;8.90;7.30;;;5.00;99.90;;;4.91;nan;99184.59;4952650;28;24441;-74
2022/04/01 09:34:10;;;;;;;9.10;8.20;;;5.00;99.90;;;4.85;nan;99186.78;4942766;28;24794;-73
2022/04/01 09:36:41;;;;;;;9.05;8.23;;;5.00;99.90;;;4.88;nan;99196.88;4928975;28;24981;-73
2022/04/01 09:39:11;;;;;;;9.70;8.40;;;5.00;99.90;;;5.07;nan;99187.72;4937114;28;24433;-73
2022/04/01 09:41:54;;;;;;;9.70;8.27;;;5.10;99.90;;;5.04;nan;99185.38;4970074;28;20821;-73
2022/04/01 09:44:27;;;;;;;8.45;7.25;;;5.10;99.90;;;5.03;nan;99186.28;4951534;28;24453;-73
2022/04/01 09:46:59;;;;;;;8.70;7.72;;;5.10;99.90;;;5.08;nan;99191.13;4951892;28;24457;-73
2022/04/01 09:49:44;;;;;;;9.50;8.60;;;5.10;99.90;;;4.89;nan;99198.56;4948780;28;24827;-73
2022/04/01 09:52:20;;;;;;;8.88;7.97;;;5.00;99.90;;;4.95;nan;99192.94;4932748;29;24434;-74
2022/04/01 09:54:50;;;;;;;9.10;7.72;;;5.00;99.90;;;4.82;nan;99202.50;4935108;28;21389;-73
2022/04/01 09:57:19;;;;;;;10.05;7.35;;;4.90;99.90;;;4.87;nan;99183.16;4966011;28;20208;-73
2022/04/01 09:59:49;;;;;;;9.13;8.00;;;4.90;99.90;;;4.85;nan;99194.53;4934322;28;20534;-73
2022/04/01 10:02:16;;;;;;;10.23;8.27;;;4.90;99.90;;;4.91;nan;99184.59;4947799;28;20584;-73
2022/04/01 10:04:43;;;;;;;11.38;7.50;;;5.00;99.90;;;4.95;nan;99198.09;4951315;28;20593;-73
2022/04/01 10:07:12;;;;;;;6.63;6.03;;;5.00;99.90;;;5.09;nan;99209.09;4962768;28;20854;-73
2022/04/01 10:09:41;;;;;;;13.30;7.45;;;5.10;99.90;;;4.91;nan;99207.00;4945074;28;20235;-72
2022/04/01 10:12:32;;;;;;;8.15;7.38;;;5.00;99.90;;;4.88;nan;99207.22;4943366;28;20612;-73
2022/04/01 10:15:00;;;;;;;9.70;6.40;;;5.00;99.90;;;4.87;nan;99203.00;4916300;28;1068401;-74
2022/04/01 10:17:49;;;;;;;8.45;7.45;;;4.90;99.90;;;4.89;nan;99203.72;4970581;28;20215;-73
2022/04/01 10:20:19;;;;;;;10.45;8.13;;;5.00;99.90;;;4.84;nan;99206.63;4952422;28;20665;-73
2022/04/01 10:22:47;;;;;;;6.80;6.18;;;4.90;99.90;;;4.98;nan;99216.81;4954534;28;20219;-73
2022/04/01 10:25:58;;;;;;;11.23;8.18;;;5.00;99.90;;;4.86;nan;99206.50;4969731;28;20287;-73
2022/04/01 10:28:27;;;;;;;8.18;7.43;;;4.90;99.90;;;4.97;nan;99220.34;4953908;28;20300;-73
2022/04/01 10:31:00;;;;;;;8.77;7.97;;;5.00;99.90;;;5.00;nan;99217.53;4957866;28;20208;-73
2022/04/01 10:33:36;;;;;;;8.63;7.57;;;5.00;99.90;;;4.91;nan;99213.03;4955747;28;20200;-73
2022/04/01 10:36:24;;;;;;;8.15;7.35;;;5.00;99.90;;;4.92;nan;99216.44;4955773;28;20227;-74
2022/04/01 10:39:02;;;;;;;7.93;7.00;;;5.00;99.90;;;4.77;nan;99214.94;4972732;28;20219;-73
2022/04/01 10:41:29;;;;;;;9.45;7.38;;;4.90;99.90;;;4.74;nan;99218.56;4957203;28;20281;-74
2022/04/01 10:43:56;;;;;;;8.73;7.30;;;4.80;99.90;;;4.74;nan;99221.13;4974768;28;20584;-74
2022/04/01 10:46:24;;;;;;;6.28;5.60;;;4.80;99.90;;;4.75;nan;99219.38;4957302;28;20211;-74
2022/04/01 10:52:12;;;;;;;8.25;7.55;;;4.80;99.90;;;4.69;nan;99226.63;4946395;28;20196;-74
2022/04/01 10:54:45;;;;;;;7.22;6.30;;;4.80;99.90;;;4.70;nan;99230.88;4974329;28;20239;-74
2022/04/01 10:57:26;;;;;;;8.30;7.50;;;4.80;99.90;;;4.86;nan;99235.75;4954328;28;20239;-74
2022/04/01 10:59:54;;;;;;;6.15;5.55;;;4.90;99.90;;;4.85;nan;99235.88;4953677;28;20680;-73
2022/04/01 11:02:22;;;;;;;7.32;5.88;;;4.90;99.90;;;4.94;nan;99240.41;4975866;28;20596;-74
2022/04/01 11:04:53;;;;;;;8.98;7.57;;;4.90;99.90;;;4.89;nan;99238.16;4967661;28;20232;-74